sensor_id;sensor_type;location;lat;lon;timestamp;P1;durP1;ratioP1;P2;durP2;ratioP2
11287;SDS011;5700;50.996;7.044;2023-04-16T00:02:03;56.70;;;27.55;;
11287;SDS011;5700;50.996;7.044;2023-04-16T00:05:04;56.05;;;26.83;;
11287;SDS011;5700;50.996;7.044;2023-04-16T00:08:06;54.80;;;27.95;;
11287;SDS011;5700;50.996;7.044;2023-04-16T00:11:07;62.17;;;28.60;;
11287;SDS011;5700;50.996;7.044;2023-04-16T00:14:10;62.65;;;29.00;;
11287;SDS011;5700;50.996;7.044;2023-04-16T00:17:12;61.30;;;27.33;;
11287;SDS011;5700;50.996;7.044;2023-04-16T00:20:13;54.38;;;26.55;;
11287;SDS011;5700;50.996;7.044;2023-04-16T00:23:14;53.78;;;24.35;;
11287;SDS011;5700;50.996;7.044;2023-04-16T00:26:16;53.05;;;26.15;;
11287;SDS011;5700;50.996;7.044;2023-04-16T00:29:19;49.05;;;24.05;;
11287;SDS011;5700;50.996;7.044;2023-04-16T00:32:20;56.83;;;24.40;;
11287;SDS011;5700;50.996;7.044;2023-04-16T00:35:22;57.72;;;24.55;;
11287;SDS011;5700;50.996;7.044;2023-04-16T00:38:23;52.97;;;25.48;;
11287;SDS011;5700;50.996;7.044;2023-04-16T00:41:28;54.17;;;26.30;;
11287;SDS011;5700;50.996;7.044;2023-04-16T00:44:31;45.97;;;19.02;;
11287;SDS011;5700;50.996;7.044;2023-04-16T00:47:35;36.53;;;14.45;;
11287;SDS011;5700;50.996;7.044;2023-04-16T00:50:36;56.67;;;25.45;;
11287;SDS011;5700;50.996;7.044;2023-04-16T00:53:38;59.40;;;26.48;;
11287;SDS011;5700;50.996;7.044;2023-04-16T00:56:39;51.38;;;25.27;;
11287;SDS011;5700;50.996;7.044;2023-04-16T00:59:42;50.90;;;24.50;;
11287;SDS011;5700;50.996;7.044;2023-04-16T01:02:43;50.90;;;24.13;;
11287;SDS011;5700;50.996;7.044;2023-04-16T01:05:45;44.17;;;21.05;;
11287;SDS011;5700;50.996;7.044;2023-04-16T01:08:48;50.15;;;21.45;;
11287;SDS011;5700;50.996;7.044;2023-04-16T01:11:49;47.92;;;21.45;;
11287;SDS011;5700;50.996;7.044;2023-04-16T01:14:52;45.67;;;21.77;;
11287;SDS011;5700;50.996;7.044;2023-04-16T01:17:53;48.15;;;22.10;;
11287;SDS011;5700;50.996;7.044;2023-04-16T01:20:56;52.03;;;23.52;;
11287;SDS011;5700;50.996;7.044;2023-04-16T01:24:00;53.53;;;23.90;;
11287;SDS011;5700;50.996;7.044;2023-04-16T01:27:02;55.45;;;26.63;;
11287;SDS011;5700;50.996;7.044;2023-04-16T01:30:04;59.10;;;28.17;;
11287;SDS011;5700;50.996;7.044;2023-04-16T01:33:08;58.78;;;28.05;;
11287;SDS011;5700;50.996;7.044;2023-04-16T01:36:11;62.25;;;26.30;;
11287;SDS011;5700;50.996;7.044;2023-04-16T01:39:13;51.85;;;24.27;;
11287;SDS011;5700;50.996;7.044;2023-04-16T01:42:15;52.88;;;25.13;;
11287;SDS011;5700;50.996;7.044;2023-04-16T01:45:16;55.10;;;26.77;;
11287;SDS011;5700;50.996;7.044;2023-04-16T01:48:18;57.90;;;26.17;;
11287;SDS011;5700;50.996;7.044;2023-04-16T01:51:20;53.60;;;26.20;;
11287;SDS011;5700;50.996;7.044;2023-04-16T01:54:23;60.45;;;25.17;;
11287;SDS011;5700;50.996;7.044;2023-04-16T01:57:25;52.17;;;24.85;;
11287;SDS011;5700;50.996;7.044;2023-04-16T02:00:26;56.63;;;25.17;;
11287;SDS011;5700;50.996;7.044;2023-04-16T02:03:27;53.13;;;24.70;;
11287;SDS011;5700;50.996;7.044;2023-04-16T02:06:30;64.43;;;29.48;;
11287;SDS011;5700;50.996;7.044;2023-04-16T02:09:32;56.10;;;26.33;;
11287;SDS011;5700;50.996;7.044;2023-04-16T02:12:34;62.80;;;27.50;;
11287;SDS011;5700;50.996;7.044;2023-04-16T02:15:36;62.20;;;27.00;;
11287;SDS011;5700;50.996;7.044;2023-04-16T02:18:38;62.45;;;26.50;;
11287;SDS011;5700;50.996;7.044;2023-04-16T02:21:41;61.95;;;28.45;;
11287;SDS011;5700;50.996;7.044;2023-04-16T02:24:42;56.92;;;25.95;;
11287;SDS011;5700;50.996;7.044;2023-04-16T02:27:43;59.13;;;25.15;;
11287;SDS011;5700;50.996;7.044;2023-04-16T02:30:45;56.65;;;24.75;;
11287;SDS011;5700;50.996;7.044;2023-04-16T02:33:46;57.05;;;23.75;;
11287;SDS011;5700;50.996;7.044;2023-04-16T02:36:49;56.15;;;24.70;;
11287;SDS011;5700;50.996;7.044;2023-04-16T02:39:50;55.13;;;23.42;;
11287;SDS011;5700;50.996;7.044;2023-04-16T02:42:52;53.47;;;22.30;;
11287;SDS011;5700;50.996;7.044;2023-04-16T02:45:54;44.25;;;20.13;;
11287;SDS011;5700;50.996;7.044;2023-04-16T02:48:55;46.67;;;19.90;;
11287;SDS011;5700;50.996;7.044;2023-04-16T02:51:58;44.22;;;19.30;;
11287;SDS011;5700;50.996;7.044;2023-04-16T02:54:59;43.42;;;19.45;;
11287;SDS011;5700;50.996;7.044;2023-04-16T02:58:01;38.33;;;17.00;;
11287;SDS011;5700;50.996;7.044;2023-04-16T03:01:02;39.85;;;19.08;;
11287;SDS011;5700;50.996;7.044;2023-04-16T03:04:05;44.83;;;20.13;;
11287;SDS011;5700;50.996;7.044;2023-04-16T03:07:07;45.42;;;18.35;;
11287;SDS011;5700;50.996;7.044;2023-04-16T03:10:10;44.58;;;18.77;;
11287;SDS011;5700;50.996;7.044;2023-04-16T03:13:12;42.22;;;18.27;;
11287;SDS011;5700;50.996;7.044;2023-04-16T03:16:14;46.00;;;19.65;;
11287;SDS011;5700;50.996;7.044;2023-04-16T03:19:16;40.67;;;20.38;;
11287;SDS011;5700;50.996;7.044;2023-04-16T03:22:18;50.63;;;21.02;;
11287;SDS011;5700;50.996;7.044;2023-04-16T03:25:20;43.75;;;20.13;;
11287;SDS011;5700;50.996;7.044;2023-04-16T03:28:21;46.38;;;20.30;;
11287;SDS011;5700;50.996;7.044;2023-04-16T03:31:23;51.30;;;22.38;;
11287;SDS011;5700;50.996;7.044;2023-04-16T03:34:24;48.90;;;21.98;;
11287;SDS011;5700;50.996;7.044;2023-04-16T03:37:27;57.33;;;23.17;;
11287;SDS011;5700;50.996;7.044;2023-04-16T03:40:28;49.58;;;23.40;;
11287;SDS011;5700;50.996;7.044;2023-04-16T03:43:30;57.13;;;25.23;;
11287;SDS011;5700;50.996;7.044;2023-04-16T03:46:31;58.53;;;25.00;;
11287;SDS011;5700;50.996;7.044;2023-04-16T03:49:33;58.38;;;24.38;;
11287;SDS011;5700;50.996;7.044;2023-04-16T03:52:35;52.72;;;23.52;;
11287;SDS011;5700;50.996;7.044;2023-04-16T03:55:37;57.30;;;23.95;;
11287;SDS011;5700;50.996;7.044;2023-04-16T03:58:38;58.15;;;25.63;;
11287;SDS011;5700;50.996;7.044;2023-04-16T04:01:39;59.95;;;25.05;;
11287;SDS011;5700;50.996;7.044;2023-04-16T04:04:41;65.25;;;24.67;;
11287;SDS011;5700;50.996;7.044;2023-04-16T04:07:43;65.07;;;25.92;;
11287;SDS011;5700;50.996;7.044;2023-04-16T04:10:45;62.50;;;26.73;;
11287;SDS011;5700;50.996;7.044;2023-04-16T04:13:46;55.50;;;24.55;;
11287;SDS011;5700;50.996;7.044;2023-04-16T04:16:48;53.70;;;25.38;;
11287;SDS011;5700;50.996;7.044;2023-04-16T04:19:49;64.97;;;25.65;;
11287;SDS011;5700;50.996;7.044;2023-04-16T04:22:54;66.65;;;25.45;;
11287;SDS011;5700;50.996;7.044;2023-04-16T04:25:55;53.30;;;23.05;;
11287;SDS011;5700;50.996;7.044;2023-04-16T04:28:56;61.50;;;24.88;;
11287;SDS011;5700;50.996;7.044;2023-04-16T04:31:58;55.13;;;24.10;;
11287;SDS011;5700;50.996;7.044;2023-04-16T04:35:00;56.22;;;24.92;;
11287;SDS011;5700;50.996;7.044;2023-04-16T04:38:03;71.03;;;28.15;;
11287;SDS011;5700;50.996;7.044;2023-04-16T04:41:05;61.58;;;25.90;;
11287;SDS011;5700;50.996;7.044;2023-04-16T04:44:06;59.40;;;25.63;;
11287;SDS011;5700;50.996;7.044;2023-04-16T04:47:07;63.72;;;26.48;;
11287;SDS011;5700;50.996;7.044;2023-04-16T04:50:09;56.80;;;25.60;;
11287;SDS011;5700;50.996;7.044;2023-04-16T04:53:12;54.20;;;22.33;;
11287;SDS011;5700;50.996;7.044;2023-04-16T04:56:13;66.05;;;25.17;;
11287;SDS011;5700;50.996;7.044;2023-04-16T04:59:15;50.30;;;22.70;;
11287;SDS011;5700;50.996;7.044;2023-04-16T05:02:16;57.13;;;23.85;;
11287;SDS011;5700;50.996;7.044;2023-04-16T05:05:18;54.05;;;23.88;;
11287;SDS011;5700;50.996;7.044;2023-04-16T05:08:21;59.60;;;25.35;;
11287;SDS011;5700;50.996;7.044;2023-04-16T05:11:22;53.28;;;23.73;;
11287;SDS011;5700;50.996;7.044;2023-04-16T05:14:23;55.47;;;23.38;;
11287;SDS011;5700;50.996;7.044;2023-04-16T05:17:25;57.08;;;24.15;;
11287;SDS011;5700;50.996;7.044;2023-04-16T05:20:26;55.28;;;23.58;;
11287;SDS011;5700;50.996;7.044;2023-04-16T05:23:29;57.75;;;24.27;;
11287;SDS011;5700;50.996;7.044;2023-04-16T05:26:31;53.78;;;22.40;;
11287;SDS011;5700;50.996;7.044;2023-04-16T05:29:32;50.38;;;22.42;;
11287;SDS011;5700;50.996;7.044;2023-04-16T05:32:34;55.28;;;23.25;;
11287;SDS011;5700;50.996;7.044;2023-04-16T05:35:35;56.80;;;24.80;;
11287;SDS011;5700;50.996;7.044;2023-04-16T05:38:38;54.13;;;24.02;;
11287;SDS011;5700;50.996;7.044;2023-04-16T05:41:39;58.05;;;26.05;;
11287;SDS011;5700;50.996;7.044;2023-04-16T05:44:41;58.70;;;24.08;;
11287;SDS011;5700;50.996;7.044;2023-04-16T05:47:42;55.47;;;24.38;;
11287;SDS011;5700;50.996;7.044;2023-04-16T05:50:44;59.90;;;25.33;;
11287;SDS011;5700;50.996;7.044;2023-04-16T05:53:46;56.53;;;24.80;;
11287;SDS011;5700;50.996;7.044;2023-04-16T05:56:48;58.17;;;24.83;;
11287;SDS011;5700;50.996;7.044;2023-04-16T05:59:49;57.00;;;23.95;;
11287;SDS011;5700;50.996;7.044;2023-04-16T06:02:52;57.72;;;25.40;;
11287;SDS011;5700;50.996;7.044;2023-04-16T06:05:54;64.70;;;24.60;;
11287;SDS011;5700;50.996;7.044;2023-04-16T06:08:57;55.35;;;24.05;;
11287;SDS011;5700;50.996;7.044;2023-04-16T06:11:58;59.33;;;23.65;;
11287;SDS011;5700;50.996;7.044;2023-04-16T06:15:00;51.85;;;23.50;;
11287;SDS011;5700;50.996;7.044;2023-04-16T06:18:02;55.00;;;24.23;;
11287;SDS011;5700;50.996;7.044;2023-04-16T06:21:03;54.28;;;23.70;;
11287;SDS011;5700;50.996;7.044;2023-04-16T06:24:06;49.03;;;21.48;;
11287;SDS011;5700;50.996;7.044;2023-04-16T06:27:08;56.78;;;22.88;;
11287;SDS011;5700;50.996;7.044;2023-04-16T06:30:10;53.75;;;21.65;;
11287;SDS011;5700;50.996;7.044;2023-04-16T06:33:12;47.38;;;18.75;;
11287;SDS011;5700;50.996;7.044;2023-04-16T06:36:14;45.13;;;19.25;;
11287;SDS011;5700;50.996;7.044;2023-04-16T06:39:17;51.72;;;20.52;;
11287;SDS011;5700;50.996;7.044;2023-04-16T06:42:20;43.30;;;19.67;;
11287;SDS011;5700;50.996;7.044;2023-04-16T06:45:22;43.53;;;19.30;;
11287;SDS011;5700;50.996;7.044;2023-04-16T06:48:23;37.45;;;18.25;;
11287;SDS011;5700;50.996;7.044;2023-04-16T06:51:24;47.88;;;20.50;;
11287;SDS011;5700;50.996;7.044;2023-04-16T06:54:27;39.97;;;18.35;;
11287;SDS011;5700;50.996;7.044;2023-04-16T06:57:29;49.08;;;19.38;;
11287;SDS011;5700;50.996;7.044;2023-04-16T07:00:30;43.75;;;18.63;;
11287;SDS011;5700;50.996;7.044;2023-04-16T07:03:32;39.88;;;18.27;;
11287;SDS011;5700;50.996;7.044;2023-04-16T07:06:33;39.08;;;17.48;;
11287;SDS011;5700;50.996;7.044;2023-04-16T07:09:36;38.20;;;17.02;;
11287;SDS011;5700;50.996;7.044;2023-04-16T07:12:37;37.38;;;16.35;;
11287;SDS011;5700;50.996;7.044;2023-04-16T07:15:39;35.72;;;16.10;;
11287;SDS011;5700;50.996;7.044;2023-04-16T07:18:40;33.40;;;15.57;;
11287;SDS011;5700;50.996;7.044;2023-04-16T07:21:42;33.97;;;16.88;;
11287;SDS011;5700;50.996;7.044;2023-04-16T07:24:44;32.13;;;15.75;;
11287;SDS011;5700;50.996;7.044;2023-04-16T07:27:46;36.42;;;14.50;;
11287;SDS011;5700;50.996;7.044;2023-04-16T07:30:48;31.75;;;14.70;;
11287;SDS011;5700;50.996;7.044;2023-04-16T07:33:49;33.90;;;14.93;;
11287;SDS011;5700;50.996;7.044;2023-04-16T07:36:51;25.88;;;13.98;;
11287;SDS011;5700;50.996;7.044;2023-04-16T07:39:53;31.73;;;14.77;;
11287;SDS011;5700;50.996;7.044;2023-04-16T07:42:56;30.73;;;14.75;;
11287;SDS011;5700;50.996;7.044;2023-04-16T07:45:57;29.65;;;14.48;;
11287;SDS011;5700;50.996;7.044;2023-04-16T07:48:59;31.85;;;14.82;;
11287;SDS011;5700;50.996;7.044;2023-04-16T07:52:01;27.48;;;14.77;;
11287;SDS011;5700;50.996;7.044;2023-04-16T07:55:04;33.65;;;15.20;;
11287;SDS011;5700;50.996;7.044;2023-04-16T07:58:06;31.05;;;13.50;;
11287;SDS011;5700;50.996;7.044;2023-04-16T08:01:08;27.58;;;14.05;;
11287;SDS011;5700;50.996;7.044;2023-04-16T08:04:10;32.58;;;14.57;;
11287;SDS011;5700;50.996;7.044;2023-04-16T08:07:11;29.40;;;13.43;;
11287;SDS011;5700;50.996;7.044;2023-04-16T08:10:14;29.63;;;14.93;;
11287;SDS011;5700;50.996;7.044;2023-04-16T08:13:15;31.13;;;13.90;;
11287;SDS011;5700;50.996;7.044;2023-04-16T08:16:17;25.08;;;14.98;;
11287;SDS011;5700;50.996;7.044;2023-04-16T08:19:18;30.35;;;14.98;;
11287;SDS011;5700;50.996;7.044;2023-04-16T08:22:20;28.42;;;13.85;;
11287;SDS011;5700;50.996;7.044;2023-04-16T08:25:23;31.15;;;14.30;;
11287;SDS011;5700;50.996;7.044;2023-04-16T08:28:25;27.38;;;14.13;;
11287;SDS011;5700;50.996;7.044;2023-04-16T08:31:26;28.95;;;15.25;;
11287;SDS011;5700;50.996;7.044;2023-04-16T08:34:28;26.13;;;14.15;;
11287;SDS011;5700;50.996;7.044;2023-04-16T08:37:29;32.88;;;15.20;;
11287;SDS011;5700;50.996;7.044;2023-04-16T08:40:32;27.00;;;13.45;;
11287;SDS011;5700;50.996;7.044;2023-04-16T08:43:36;28.65;;;13.73;;
11287;SDS011;5700;50.996;7.044;2023-04-16T08:46:38;26.70;;;14.02;;
11287;SDS011;5700;50.996;7.044;2023-04-16T08:49:42;25.80;;;13.02;;
11287;SDS011;5700;50.996;7.044;2023-04-16T08:52:45;27.88;;;14.70;;
11287;SDS011;5700;50.996;7.044;2023-04-16T08:55:52;27.63;;;14.57;;
11287;SDS011;5700;50.996;7.044;2023-04-16T08:58:55;24.38;;;12.98;;
11287;SDS011;5700;50.996;7.044;2023-04-16T09:01:57;24.25;;;13.77;;
11287;SDS011;5700;50.996;7.044;2023-04-16T09:04:59;29.77;;;13.80;;
11287;SDS011;5700;50.996;7.044;2023-04-16T09:08:01;27.10;;;13.90;;
11287;SDS011;5700;50.996;7.044;2023-04-16T09:11:03;26.02;;;13.65;;
11287;SDS011;5700;50.996;7.044;2023-04-16T09:14:06;25.60;;;14.15;;
11287;SDS011;5700;50.996;7.044;2023-04-16T09:17:09;24.73;;;13.82;;
11287;SDS011;5700;50.996;7.044;2023-04-16T09:20:11;23.80;;;13.23;;
11287;SDS011;5700;50.996;7.044;2023-04-16T09:23:13;25.30;;;13.40;;
11287;SDS011;5700;50.996;7.044;2023-04-16T09:26:15;22.77;;;11.65;;
11287;SDS011;5700;50.996;7.044;2023-04-16T09:29:31;25.40;;;12.32;;
11287;SDS011;5700;50.996;7.044;2023-04-16T09:32:34;23.52;;;12.82;;
11287;SDS011;5700;50.996;7.044;2023-04-16T09:35:43;24.35;;;13.93;;
11287;SDS011;5700;50.996;7.044;2023-04-16T09:38:47;27.33;;;13.52;;
11287;SDS011;5700;50.996;7.044;2023-04-16T09:41:51;22.90;;;13.45;;
11287;SDS011;5700;50.996;7.044;2023-04-16T09:44:54;23.55;;;13.20;;
11287;SDS011;5700;50.996;7.044;2023-04-16T09:48:01;22.98;;;13.43;;
11287;SDS011;5700;50.996;7.044;2023-04-16T09:51:04;27.67;;;13.80;;
11287;SDS011;5700;50.996;7.044;2023-04-16T09:54:06;26.00;;;14.80;;
11287;SDS011;5700;50.996;7.044;2023-04-16T09:57:09;24.33;;;13.30;;
11287;SDS011;5700;50.996;7.044;2023-04-16T10:00:10;22.80;;;13.52;;
11287;SDS011;5700;50.996;7.044;2023-04-16T10:03:12;21.27;;;12.65;;
11287;SDS011;5700;50.996;7.044;2023-04-16T10:06:15;26.98;;;13.75;;
11287;SDS011;5700;50.996;7.044;2023-04-16T10:09:17;25.50;;;14.23;;
11287;SDS011;5700;50.996;7.044;2023-04-16T10:12:20;25.45;;;14.50;;
11287;SDS011;5700;50.996;7.044;2023-04-16T10:15:22;24.48;;;14.48;;
11287;SDS011;5700;50.996;7.044;2023-04-16T10:18:24;23.60;;;13.88;;
11287;SDS011;5700;50.996;7.044;2023-04-16T10:21:26;22.58;;;13.95;;
11287;SDS011;5700;50.996;7.044;2023-04-16T10:24:33;20.02;;;12.50;;
11287;SDS011;5700;50.996;7.044;2023-04-16T10:27:36;22.20;;;13.60;;
11287;SDS011;5700;50.996;7.044;2023-04-16T10:30:38;21.08;;;13.00;;
11287;SDS011;5700;50.996;7.044;2023-04-16T10:33:41;20.25;;;12.35;;
11287;SDS011;5700;50.996;7.044;2023-04-16T10:36:46;21.38;;;12.05;;
11287;SDS011;5700;50.996;7.044;2023-04-16T10:39:48;19.55;;;11.23;;
11287;SDS011;5700;50.996;7.044;2023-04-16T10:42:54;21.02;;;11.60;;
11287;SDS011;5700;50.996;7.044;2023-04-16T10:45:56;18.80;;;11.90;;
11287;SDS011;5700;50.996;7.044;2023-04-16T10:49:00;20.15;;;12.05;;
11287;SDS011;5700;50.996;7.044;2023-04-16T10:52:06;22.52;;;12.50;;
11287;SDS011;5700;50.996;7.044;2023-04-16T10:55:13;23.05;;;13.45;;
11287;SDS011;5700;50.996;7.044;2023-04-16T10:58:27;24.95;;;13.40;;
11287;SDS011;5700;50.996;7.044;2023-04-16T11:01:29;19.88;;;13.02;;
11287;SDS011;5700;50.996;7.044;2023-04-16T11:04:33;21.38;;;13.07;;
11287;SDS011;5700;50.996;7.044;2023-04-16T11:07:43;20.55;;;13.13;;
11287;SDS011;5700;50.996;7.044;2023-04-16T11:10:47;24.08;;;13.55;;
11287;SDS011;5700;50.996;7.044;2023-04-16T11:13:51;19.40;;;12.73;;
11287;SDS011;5700;50.996;7.044;2023-04-16T11:16:55;19.00;;;10.63;;
11287;SDS011;5700;50.996;7.044;2023-04-16T11:19:56;21.23;;;11.90;;
11287;SDS011;5700;50.996;7.044;2023-04-16T11:22:58;18.05;;;9.30;;
11287;SDS011;5700;50.996;7.044;2023-04-16T11:25:59;21.92;;;11.00;;
11287;SDS011;5700;50.996;7.044;2023-04-16T11:29:02;17.33;;;10.32;;
11287;SDS011;5700;50.996;7.044;2023-04-16T11:32:19;17.08;;;9.63;;
11287;SDS011;5700;50.996;7.044;2023-04-16T11:35:21;18.98;;;10.50;;
11287;SDS011;5700;50.996;7.044;2023-04-16T11:38:33;16.27;;;10.10;;
11287;SDS011;5700;50.996;7.044;2023-04-16T11:41:40;18.17;;;10.05;;
11287;SDS011;5700;50.996;7.044;2023-04-16T11:44:45;15.27;;;8.63;;
11287;SDS011;5700;50.996;7.044;2023-04-16T11:47:46;15.85;;;8.18;;
11287;SDS011;5700;50.996;7.044;2023-04-16T11:50:54;12.45;;;7.82;;
11287;SDS011;5700;50.996;7.044;2023-04-16T11:53:56;12.52;;;7.68;;
11287;SDS011;5700;50.996;7.044;2023-04-16T11:56:58;15.38;;;8.50;;
11287;SDS011;5700;50.996;7.044;2023-04-16T12:00:01;13.02;;;7.53;;
11287;SDS011;5700;50.996;7.044;2023-04-16T12:03:03;14.38;;;7.93;;
11287;SDS011;5700;50.996;7.044;2023-04-16T12:06:06;13.25;;;7.07;;
11287;SDS011;5700;50.996;7.044;2023-04-16T12:12:25;15.65;;;8.85;;
11287;SDS011;5700;50.996;7.044;2023-04-16T12:15:43;15.60;;;8.68;;
11287;SDS011;5700;50.996;7.044;2023-04-16T12:22:03;14.65;;;8.70;;
11287;SDS011;5700;50.996;7.044;2023-04-16T12:25:05;13.20;;;7.28;;
11287;SDS011;5700;50.996;7.044;2023-04-16T12:28:07;14.32;;;8.18;;
11287;SDS011;5700;50.996;7.044;2023-04-16T12:31:10;11.48;;;6.80;;
11287;SDS011;5700;50.996;7.044;2023-04-16T12:34:11;15.23;;;8.02;;
11287;SDS011;5700;50.996;7.044;2023-04-16T12:37:14;14.05;;;7.65;;
11287;SDS011;5700;50.996;7.044;2023-04-16T12:40:15;11.88;;;6.40;;
11287;SDS011;5700;50.996;7.044;2023-04-16T12:43:17;14.57;;;7.25;;
11287;SDS011;5700;50.996;7.044;2023-04-16T12:46:20;11.02;;;5.57;;
11287;SDS011;5700;50.996;7.044;2023-04-16T12:49:21;14.48;;;6.65;;
11287;SDS011;5700;50.996;7.044;2023-04-16T12:52:22;10.65;;;6.32;;
11287;SDS011;5700;50.996;7.044;2023-04-16T12:55:24;11.50;;;5.60;;
11287;SDS011;5700;50.996;7.044;2023-04-16T12:58:26;8.80;;;5.50;;
11287;SDS011;5700;50.996;7.044;2023-04-16T13:01:28;13.30;;;6.90;;
11287;SDS011;5700;50.996;7.044;2023-04-16T13:04:30;15.07;;;6.20;;
11287;SDS011;5700;50.996;7.044;2023-04-16T13:07:31;10.27;;;5.32;;
11287;SDS011;5700;50.996;7.044;2023-04-16T13:10:33;10.77;;;6.15;;
11287;SDS011;5700;50.996;7.044;2023-04-16T13:13:35;12.23;;;6.75;;
11287;SDS011;5700;50.996;7.044;2023-04-16T13:16:37;11.32;;;6.93;;
11287;SDS011;5700;50.996;7.044;2023-04-16T13:19:39;11.23;;;5.85;;
11287;SDS011;5700;50.996;7.044;2023-04-16T13:22:40;10.38;;;5.72;;
11287;SDS011;5700;50.996;7.044;2023-04-16T13:25:42;9.77;;;5.68;;
11287;SDS011;5700;50.996;7.044;2023-04-16T13:28:43;12.10;;;6.75;;
11287;SDS011;5700;50.996;7.044;2023-04-16T13:31:46;12.13;;;6.60;;
11287;SDS011;5700;50.996;7.044;2023-04-16T13:34:47;13.82;;;6.28;;
11287;SDS011;5700;50.996;7.044;2023-04-16T13:37:49;14.77;;;7.28;;
11287;SDS011;5700;50.996;7.044;2023-04-16T13:40:51;13.02;;;6.82;;
11287;SDS011;5700;50.996;7.044;2023-04-16T13:43:53;13.90;;;7.63;;
11287;SDS011;5700;50.996;7.044;2023-04-16T13:46:56;12.48;;;7.15;;
11287;SDS011;5700;50.996;7.044;2023-04-16T13:49:58;12.88;;;7.75;;
11287;SDS011;5700;50.996;7.044;2023-04-16T13:52:59;9.98;;;6.20;;
11287;SDS011;5700;50.996;7.044;2023-04-16T13:56:01;11.95;;;6.97;;
11287;SDS011;5700;50.996;7.044;2023-04-16T13:59:03;11.43;;;5.75;;
11287;SDS011;5700;50.996;7.044;2023-04-16T14:02:06;12.50;;;6.85;;
11287;SDS011;5700;50.996;7.044;2023-04-16T14:05:13;10.25;;;5.80;;
11287;SDS011;5700;50.996;7.044;2023-04-16T14:08:15;13.60;;;6.43;;
11287;SDS011;5700;50.996;7.044;2023-04-16T14:11:16;11.70;;;6.75;;
11287;SDS011;5700;50.996;7.044;2023-04-16T14:14:18;13.35;;;7.22;;
11287;SDS011;5700;50.996;7.044;2023-04-16T14:17:21;11.88;;;6.03;;
11287;SDS011;5700;50.996;7.044;2023-04-16T14:20:23;11.32;;;6.43;;
11287;SDS011;5700;50.996;7.044;2023-04-16T14:23:24;15.18;;;6.88;;
11287;SDS011;5700;50.996;7.044;2023-04-16T14:26:26;13.73;;;7.80;;
11287;SDS011;5700;50.996;7.044;2023-04-16T14:29:27;11.60;;;6.88;;
11287;SDS011;5700;50.996;7.044;2023-04-16T14:32:30;12.35;;;6.97;;
11287;SDS011;5700;50.996;7.044;2023-04-16T14:35:31;12.63;;;6.63;;
11287;SDS011;5700;50.996;7.044;2023-04-16T14:38:33;13.30;;;7.28;;
11287;SDS011;5700;50.996;7.044;2023-04-16T14:41:35;13.02;;;6.68;;
11287;SDS011;5700;50.996;7.044;2023-04-16T14:44:36;14.25;;;6.55;;
11287;SDS011;5700;50.996;7.044;2023-04-16T14:47:39;12.52;;;6.78;;
11287;SDS011;5700;50.996;7.044;2023-04-16T14:50:44;10.57;;;5.88;;
11287;SDS011;5700;50.996;7.044;2023-04-16T14:53:46;13.23;;;7.47;;
11287;SDS011;5700;50.996;7.044;2023-04-16T14:56:48;13.65;;;7.03;;
11287;SDS011;5700;50.996;7.044;2023-04-16T14:59:49;11.93;;;6.50;;
11287;SDS011;5700;50.996;7.044;2023-04-16T15:02:52;13.20;;;6.72;;
11287;SDS011;5700;50.996;7.044;2023-04-16T15:05:54;10.77;;;6.03;;
11287;SDS011;5700;50.996;7.044;2023-04-16T15:08:55;10.77;;;6.30;;
11287;SDS011;5700;50.996;7.044;2023-04-16T15:11:56;13.13;;;6.22;;
11287;SDS011;5700;50.996;7.044;2023-04-16T15:14:58;11.93;;;6.88;;
11287;SDS011;5700;50.996;7.044;2023-04-16T15:18:01;14.23;;;6.38;;
11287;SDS011;5700;50.996;7.044;2023-04-16T15:21:02;9.75;;;6.05;;
11287;SDS011;5700;50.996;7.044;2023-04-16T15:24:04;10.65;;;6.22;;
11287;SDS011;5700;50.996;7.044;2023-04-16T15:27:06;10.88;;;6.57;;
11287;SDS011;5700;50.996;7.044;2023-04-16T15:30:08;10.77;;;6.55;;
11287;SDS011;5700;50.996;7.044;2023-04-16T15:33:11;12.45;;;6.63;;
11287;SDS011;5700;50.996;7.044;2023-04-16T15:36:13;12.70;;;6.18;;
11287;SDS011;5700;50.996;7.044;2023-04-16T15:39:15;13.40;;;6.95;;
11287;SDS011;5700;50.996;7.044;2023-04-16T15:42:16;13.95;;;7.40;;
11287;SDS011;5700;50.996;7.044;2023-04-16T15:45:17;13.23;;;6.55;;
11287;SDS011;5700;50.996;7.044;2023-04-16T15:48:21;14.18;;;6.50;;
11287;SDS011;5700;50.996;7.044;2023-04-16T15:51:23;12.32;;;6.93;;
11287;SDS011;5700;50.996;7.044;2023-04-16T15:54:25;11.20;;;6.45;;
11287;SDS011;5700;50.996;7.044;2023-04-16T15:57:27;12.93;;;6.70;;
11287;SDS011;5700;50.996;7.044;2023-04-16T16:00:28;11.60;;;6.00;;
11287;SDS011;5700;50.996;7.044;2023-04-16T16:03:31;12.77;;;6.03;;
11287;SDS011;5700;50.996;7.044;2023-04-16T16:06:34;9.40;;;5.07;;
11287;SDS011;5700;50.996;7.044;2023-04-16T16:09:36;9.68;;;5.45;;
11287;SDS011;5700;50.996;7.044;2023-04-16T16:12:38;12.43;;;5.63;;
11287;SDS011;5700;50.996;7.044;2023-04-16T16:15:40;9.68;;;5.50;;
11287;SDS011;5700;50.996;7.044;2023-04-16T16:18:43;17.52;;;7.57;;
11287;SDS011;5700;50.996;7.044;2023-04-16T16:21:44;11.07;;;6.03;;
11287;SDS011;5700;50.996;7.044;2023-04-16T16:24:45;8.60;;;5.57;;
11287;SDS011;5700;50.996;7.044;2023-04-16T16:27:48;11.40;;;6.28;;
11287;SDS011;5700;50.996;7.044;2023-04-16T16:30:49;13.40;;;5.97;;
11287;SDS011;5700;50.996;7.044;2023-04-16T16:33:54;11.27;;;5.43;;
11287;SDS011;5700;50.996;7.044;2023-04-16T16:36:56;9.93;;;4.75;;
11287;SDS011;5700;50.996;7.044;2023-04-16T16:39:57;8.52;;;5.38;;
11287;SDS011;5700;50.996;7.044;2023-04-16T16:42:59;9.95;;;5.68;;
11287;SDS011;5700;50.996;7.044;2023-04-16T16:46:01;9.52;;;4.75;;
11287;SDS011;5700;50.996;7.044;2023-04-16T16:49:05;8.93;;;4.50;;
11287;SDS011;5700;50.996;7.044;2023-04-16T16:52:08;10.25;;;5.00;;
11287;SDS011;5700;50.996;7.044;2023-04-16T16:55:10;7.93;;;4.07;;
11287;SDS011;5700;50.996;7.044;2023-04-16T16:58:11;8.30;;;5.05;;
11287;SDS011;5700;50.996;7.044;2023-04-16T17:01:12;10.02;;;4.97;;
11287;SDS011;5700;50.996;7.044;2023-04-16T17:04:15;6.53;;;4.05;;
11287;SDS011;5700;50.996;7.044;2023-04-16T17:07:17;8.80;;;4.45;;
11287;SDS011;5700;50.996;7.044;2023-04-16T17:10:18;7.22;;;3.80;;
11287;SDS011;5700;50.996;7.044;2023-04-16T17:13:20;11.02;;;5.25;;
11287;SDS011;5700;50.996;7.044;2023-04-16T17:16:22;13.90;;;5.38;;
11287;SDS011;5700;50.996;7.044;2023-04-16T17:19:25;10.57;;;5.03;;
11287;SDS011;5700;50.996;7.044;2023-04-16T17:22:27;9.68;;;4.88;;
11287;SDS011;5700;50.996;7.044;2023-04-16T17:25:28;8.32;;;5.22;;
11287;SDS011;5700;50.996;7.044;2023-04-16T17:28:29;11.88;;;4.97;;
11287;SDS011;5700;50.996;7.044;2023-04-16T17:31:31;7.93;;;4.28;;
11287;SDS011;5700;50.996;7.044;2023-04-16T17:34:34;12.77;;;4.90;;
11287;SDS011;5700;50.996;7.044;2023-04-16T17:37:35;11.05;;;4.70;;
11287;SDS011;5700;50.996;7.044;2023-04-16T17:40:37;14.38;;;4.45;;
11287;SDS011;5700;50.996;7.044;2023-04-16T17:43:38;8.35;;;4.18;;
11287;SDS011;5700;50.996;7.044;2023-04-16T17:46:40;9.38;;;4.43;;
11287;SDS011;5700;50.996;7.044;2023-04-16T17:49:42;11.05;;;5.07;;
11287;SDS011;5700;50.996;7.044;2023-04-16T17:52:44;14.77;;;7.00;;
11287;SDS011;5700;50.996;7.044;2023-04-16T17:55:49;18.20;;;8.45;;
11287;SDS011;5700;50.996;7.044;2023-04-16T17:58:50;14.93;;;7.32;;
11287;SDS011;5700;50.996;7.044;2023-04-16T18:01:52;27.58;;;12.38;;
11287;SDS011;5700;50.996;7.044;2023-04-16T18:04:55;26.30;;;11.13;;
11287;SDS011;5700;50.996;7.044;2023-04-16T18:07:56;21.95;;;11.43;;
11287;SDS011;5700;50.996;7.044;2023-04-16T18:10:57;25.90;;;11.85;;
11287;SDS011;5700;50.996;7.044;2023-04-16T18:13:59;23.17;;;10.77;;
11287;SDS011;5700;50.996;7.044;2023-04-16T18:17:00;18.77;;;10.30;;